sensor_id;sensor_type;location;lat;lon;timestamp;P1;durP1;ratioP1;P2;durP2;ratioP2
25049;SDS011;13046;49.814;9.918;2023-03-16T00:02:02;16.40;;;10.77;;
25049;SDS011;13046;49.814;9.918;2023-03-16T00:04:29;16.40;;;12.32;;
25049;SDS011;13046;49.814;9.918;2023-03-16T00:06:56;19.55;;;11.02;;
25049;SDS011;13046;49.814;9.918;2023-03-16T00:09:22;20.10;;;13.60;;
25049;SDS011;13046;49.814;9.918;2023-03-16T00:11:55;16.67;;;12.02;;
25049;SDS011;13046;49.814;9.918;2023-03-16T00:14:21;13.77;;;10.68;;
25049;SDS011;13046;49.814;9.918;2023-03-16T00:16:47;18.35;;;12.13;;
25049;SDS011;13046;49.814;9.918;2023-03-16T00:19:13;18.17;;;11.27;;
25049;SDS011;13046;49.814;9.918;2023-03-16T00:21:40;17.17;;;12.30;;
25049;SDS011;13046;49.814;9.918;2023-03-16T00:24:06;16.92;;;11.27;;
25049;SDS011;13046;49.814;9.918;2023-03-16T00:26:32;16.13;;;10.90;;
25049;SDS011;13046;49.814;9.918;2023-03-16T00:28:58;18.63;;;12.27;;
25049;SDS011;13046;49.814;9.918;2023-03-16T00:31:25;19.40;;;13.70;;
25049;SDS011;13046;49.814;9.918;2023-03-16T00:33:51;18.67;;;13.82;;
25049;SDS011;13046;49.814;9.918;2023-03-16T00:36:19;17.20;;;13.25;;
25049;SDS011;13046;49.814;9.918;2023-03-16T00:38:46;17.38;;;14.93;;
25049;SDS011;13046;49.814;9.918;2023-03-16T00:41:14;18.45;;;11.95;;
25049;SDS011;13046;49.814;9.918;2023-03-16T00:43:41;17.17;;;11.10;;
25049;SDS011;13046;49.814;9.918;2023-03-16T00:46:09;17.80;;;12.75;;
25049;SDS011;13046;49.814;9.918;2023-03-16T00:48:36;16.80;;;13.48;;
25049;SDS011;13046;49.814;9.918;2023-03-16T00:51:03;16.73;;;13.32;;
25049;SDS011;13046;49.814;9.918;2023-03-16T00:53:33;14.27;;;10.75;;
25049;SDS011;13046;49.814;9.918;2023-03-16T00:56:00;15.10;;;11.45;;
25049;SDS011;13046;49.814;9.918;2023-03-16T00:58:33;14.70;;;10.68;;
25049;SDS011;13046;49.814;9.918;2023-03-16T01:01:00;12.88;;;10.55;;
25049;SDS011;13046;49.814;9.918;2023-03-16T01:03:26;21.05;;;11.82;;
25049;SDS011;13046;49.814;9.918;2023-03-16T01:05:52;16.63;;;11.00;;
25049;SDS011;13046;49.814;9.918;2023-03-16T01:08:25;16.02;;;10.93;;
25049;SDS011;13046;49.814;9.918;2023-03-16T01:10:54;19.00;;;14.05;;
25049;SDS011;13046;49.814;9.918;2023-03-16T01:13:20;16.35;;;12.60;;
25049;SDS011;13046;49.814;9.918;2023-03-16T01:15:50;16.10;;;11.20;;
25049;SDS011;13046;49.814;9.918;2023-03-16T01:18:16;13.13;;;9.95;;
25049;SDS011;13046;49.814;9.918;2023-03-16T01:20:42;16.05;;;11.25;;
25049;SDS011;13046;49.814;9.918;2023-03-16T01:23:15;18.52;;;11.48;;
25049;SDS011;13046;49.814;9.918;2023-03-16T01:25:41;16.55;;;12.82;;
25049;SDS011;13046;49.814;9.918;2023-03-16T01:28:08;14.52;;;11.30;;
25049;SDS011;13046;49.814;9.918;2023-03-16T01:30:34;18.33;;;12.35;;
25049;SDS011;13046;49.814;9.918;2023-03-16T01:33:00;15.52;;;10.50;;
25049;SDS011;13046;49.814;9.918;2023-03-16T01:35:27;14.38;;;11.38;;
25049;SDS011;13046;49.814;9.918;2023-03-16T01:37:53;16.10;;;10.98;;
25049;SDS011;13046;49.814;9.918;2023-03-16T01:40:23;13.98;;;10.90;;
25049;SDS011;13046;49.814;9.918;2023-03-16T01:42:57;13.30;;;10.48;;
25049;SDS011;13046;49.814;9.918;2023-03-16T01:48:09;15.38;;;11.63;;
25049;SDS011;13046;49.814;9.918;2023-03-16T01:50:35;12.82;;;11.23;;
25049;SDS011;13046;49.814;9.918;2023-03-16T01:53:01;16.48;;;10.93;;
25049;SDS011;13046;49.814;9.918;2023-03-16T01:55:27;15.65;;;9.98;;
25049;SDS011;13046;49.814;9.918;2023-03-16T01:57:54;12.18;;;10.05;;
25049;SDS011;13046;49.814;9.918;2023-03-16T02:00:20;11.52;;;9.10;;
25049;SDS011;13046;49.814;9.918;2023-03-16T02:03:18;14.07;;;10.10;;
25049;SDS011;13046;49.814;9.918;2023-03-16T02:05:58;14.27;;;10.82;;
25049;SDS011;13046;49.814;9.918;2023-03-16T02:08:27;16.30;;;11.07;;
25049;SDS011;13046;49.814;9.918;2023-03-16T02:10:54;14.02;;;9.43;;
25049;SDS011;13046;49.814;9.918;2023-03-16T02:13:25;11.68;;;9.05;;
25049;SDS011;13046;49.814;9.918;2023-03-16T02:15:53;16.88;;;11.85;;
25049;SDS011;13046;49.814;9.918;2023-03-16T02:18:20;16.55;;;12.15;;
25049;SDS011;13046;49.814;9.918;2023-03-16T02:20:49;16.23;;;9.52;;
25049;SDS011;13046;49.814;9.918;2023-03-16T02:23:17;10.32;;;8.85;;
25049;SDS011;13046;49.814;9.918;2023-03-16T02:28:41;14.88;;;10.27;;
25049;SDS011;13046;49.814;9.918;2023-03-16T02:33:38;13.80;;;9.65;;
25049;SDS011;13046;49.814;9.918;2023-03-16T02:36:06;15.38;;;9.07;;
25049;SDS011;13046;49.814;9.918;2023-03-16T02:38:32;14.63;;;8.98;;
25049;SDS011;13046;49.814;9.918;2023-03-16T02:41:20;13.50;;;8.77;;
25049;SDS011;13046;49.814;9.918;2023-03-16T02:43:54;13.45;;;8.68;;
25049;SDS011;13046;49.814;9.918;2023-03-16T02:46:27;13.95;;;9.60;;
25049;SDS011;13046;49.814;9.918;2023-03-16T02:51:23;13.85;;;9.80;;
25049;SDS011;13046;49.814;9.918;2023-03-16T02:53:49;17.38;;;9.63;;
25049;SDS011;13046;49.814;9.918;2023-03-16T02:56:17;16.75;;;11.90;;
25049;SDS011;13046;49.814;9.918;2023-03-16T02:58:44;16.60;;;11.52;;
25049;SDS011;13046;49.814;9.918;2023-03-16T03:01:15;17.05;;;11.32;;
25049;SDS011;13046;49.814;9.918;2023-03-16T03:03:41;13.82;;;10.60;;
25049;SDS011;13046;49.814;9.918;2023-03-16T03:06:07;17.38;;;10.88;;
25049;SDS011;13046;49.814;9.918;2023-03-16T03:08:35;14.02;;;9.27;;
25049;SDS011;13046;49.814;9.918;2023-03-16T03:11:01;14.13;;;10.13;;
25049;SDS011;13046;49.814;9.918;2023-03-16T03:13:27;14.88;;;10.10;;
25049;SDS011;13046;49.814;9.918;2023-03-16T03:15:53;15.38;;;10.07;;
25049;SDS011;13046;49.814;9.918;2023-03-16T03:18:22;13.48;;;10.05;;
25049;SDS011;13046;49.814;9.918;2023-03-16T03:20:49;14.18;;;9.82;;
25049;SDS011;13046;49.814;9.918;2023-03-16T03:23:15;13.68;;;9.50;;
25049;SDS011;13046;49.814;9.918;2023-03-16T03:25:41;11.02;;;9.32;;
25049;SDS011;13046;49.814;9.918;2023-03-16T03:28:07;13.73;;;9.27;;
25049;SDS011;13046;49.814;9.918;2023-03-16T03:30:34;16.13;;;10.15;;
25049;SDS011;13046;49.814;9.918;2023-03-16T03:33:02;15.07;;;9.73;;
25049;SDS011;13046;49.814;9.918;2023-03-16T03:35:28;13.55;;;9.88;;
25049;SDS011;13046;49.814;9.918;2023-03-16T03:37:54;16.00;;;11.07;;
25049;SDS011;13046;49.814;9.918;2023-03-16T03:40:20;18.25;;;12.15;;
25049;SDS011;13046;49.814;9.918;2023-03-16T03:42:53;14.88;;;10.57;;
25049;SDS011;13046;49.814;9.918;2023-03-16T03:45:21;19.00;;;11.88;;
25049;SDS011;13046;49.814;9.918;2023-03-16T03:47:47;15.35;;;11.57;;
25049;SDS011;13046;49.814;9.918;2023-03-16T03:50:18;20.88;;;13.23;;
25049;SDS011;13046;49.814;9.918;2023-03-16T03:52:57;21.35;;;14.52;;
25049;SDS011;13046;49.814;9.918;2023-03-16T03:55:25;18.33;;;12.93;;
25049;SDS011;13046;49.814;9.918;2023-03-16T03:57:51;17.63;;;12.68;;
25049;SDS011;13046;49.814;9.918;2023-03-16T04:00:17;16.08;;;10.70;;
25049;SDS011;13046;49.814;9.918;2023-03-16T04:02:47;20.02;;;11.30;;
25049;SDS011;13046;49.814;9.918;2023-03-16T04:05:23;18.48;;;12.80;;
25049;SDS011;13046;49.814;9.918;2023-03-16T04:07:55;24.45;;;15.23;;
25049;SDS011;13046;49.814;9.918;2023-03-16T04:10:27;20.95;;;14.35;;
25049;SDS011;13046;49.814;9.918;2023-03-16T04:12:55;21.30;;;14.30;;
25049;SDS011;13046;49.814;9.918;2023-03-16T04:15:22;20.05;;;15.13;;
25049;SDS011;13046;49.814;9.918;2023-03-16T04:18:02;19.10;;;12.40;;
25049;SDS011;13046;49.814;9.918;2023-03-16T04:20:28;17.52;;;12.10;;
25049;SDS011;13046;49.814;9.918;2023-03-16T04:22:54;20.75;;;12.45;;
25049;SDS011;13046;49.814;9.918;2023-03-16T04:25:23;25.17;;;15.35;;
25049;SDS011;13046;49.814;9.918;2023-03-16T04:27:50;28.50;;;16.42;;
25049;SDS011;13046;49.814;9.918;2023-03-16T04:30:17;31.33;;;18.23;;
25049;SDS011;13046;49.814;9.918;2023-03-16T04:32:48;38.30;;;19.80;;
25049;SDS011;13046;49.814;9.918;2023-03-16T04:35:18;37.83;;;17.70;;
25049;SDS011;13046;49.814;9.918;2023-03-16T04:37:51;56.38;;;19.30;;
25049;SDS011;13046;49.814;9.918;2023-03-16T04:40:20;58.90;;;22.30;;
25049;SDS011;13046;49.814;9.918;2023-03-16T04:42:53;56.80;;;21.85;;
25049;SDS011;13046;49.814;9.918;2023-03-16T04:45:19;81.00;;;23.20;;
25049;SDS011;13046;49.814;9.918;2023-03-16T04:47:48;95.47;;;25.15;;
25049;SDS011;13046;49.814;9.918;2023-03-16T04:50:15;90.43;;;24.02;;
25049;SDS011;13046;49.814;9.918;2023-03-16T04:52:43;77.00;;;23.60;;
25049;SDS011;13046;49.814;9.918;2023-03-16T04:55:11;97.63;;;23.58;;
25049;SDS011;13046;49.814;9.918;2023-03-16T04:57:38;49.88;;;22.55;;
25049;SDS011;13046;49.814;9.918;2023-03-16T05:00:04;56.33;;;23.65;;
25049;SDS011;13046;49.814;9.918;2023-03-16T05:02:39;41.83;;;20.00;;
25049;SDS011;13046;49.814;9.918;2023-03-16T05:05:06;43.97;;;21.90;;
25049;SDS011;13046;49.814;9.918;2023-03-16T05:07:33;31.00;;;19.33;;
25049;SDS011;13046;49.814;9.918;2023-03-16T05:09:59;31.52;;;19.85;;
25049;SDS011;13046;49.814;9.918;2023-03-16T05:12:25;35.15;;;21.08;;
25049;SDS011;13046;49.814;9.918;2023-03-16T05:14:57;36.85;;;20.70;;
25049;SDS011;13046;49.814;9.918;2023-03-16T05:17:34;30.48;;;19.83;;
25049;SDS011;13046;49.814;9.918;2023-03-16T05:20:00;32.85;;;20.25;;
25049;SDS011;13046;49.814;9.918;2023-03-16T05:22:32;37.53;;;22.13;;
25049;SDS011;13046;49.814;9.918;2023-03-16T05:25:28;39.17;;;23.02;;
25049;SDS011;13046;49.814;9.918;2023-03-16T05:27:56;37.65;;;21.63;;
25049;SDS011;13046;49.814;9.918;2023-03-16T05:30:29;34.88;;;20.40;;
25049;SDS011;13046;49.814;9.918;2023-03-16T05:32:58;34.00;;;20.33;;
25049;SDS011;13046;49.814;9.918;2023-03-16T05:35:26;31.55;;;21.65;;
25049;SDS011;13046;49.814;9.918;2023-03-16T05:37:56;31.30;;;20.25;;
25049;SDS011;13046;49.814;9.918;2023-03-16T05:40:22;35.72;;;20.60;;
25049;SDS011;13046;49.814;9.918;2023-03-16T05:42:57;31.58;;;20.27;;
25049;SDS011;13046;49.814;9.918;2023-03-16T05:45:25;40.03;;;24.98;;
25049;SDS011;13046;49.814;9.918;2023-03-16T05:48:02;45.13;;;25.02;;
25049;SDS011;13046;49.814;9.918;2023-03-16T05:50:31;45.30;;;23.23;;
25049;SDS011;13046;49.814;9.918;2023-03-16T05:52:57;48.75;;;26.10;;
25049;SDS011;13046;49.814;9.918;2023-03-16T05:55:24;45.55;;;24.38;;
25049;SDS011;13046;49.814;9.918;2023-03-16T05:57:55;44.63;;;23.30;;
25049;SDS011;13046;49.814;9.918;2023-03-16T06:00:21;39.15;;;22.42;;
25049;SDS011;13046;49.814;9.918;2023-03-16T06:02:58;37.38;;;21.67;;
25049;SDS011;13046;49.814;9.918;2023-03-16T06:05:29;37.75;;;24.27;;
25049;SDS011;13046;49.814;9.918;2023-03-16T06:07:56;52.17;;;25.98;;
25049;SDS011;13046;49.814;9.918;2023-03-16T06:10:24;44.88;;;25.52;;
25049;SDS011;13046;49.814;9.918;2023-03-16T06:12:51;43.53;;;25.00;;
25049;SDS011;13046;49.814;9.918;2023-03-16T06:15:18;37.00;;;22.50;;
25049;SDS011;13046;49.814;9.918;2023-03-16T06:17:47;38.17;;;24.35;;
25049;SDS011;13046;49.814;9.918;2023-03-16T06:20:13;41.10;;;26.20;;
25049;SDS011;13046;49.814;9.918;2023-03-16T06:22:42;39.83;;;26.67;;
25049;SDS011;13046;49.814;9.918;2023-03-16T06:25:09;40.83;;;25.77;;
25049;SDS011;13046;49.814;9.918;2023-03-16T06:27:36;49.03;;;31.30;;
25049;SDS011;13046;49.814;9.918;2023-03-16T06:30:09;41.50;;;27.13;;
25049;SDS011;13046;49.814;9.918;2023-03-16T06:32:36;46.00;;;30.80;;
25049;SDS011;13046;49.814;9.918;2023-03-16T06:35:03;47.38;;;29.90;;
25049;SDS011;13046;49.814;9.918;2023-03-16T06:37:30;43.67;;;28.55;;
25049;SDS011;13046;49.814;9.918;2023-03-16T06:40:00;41.42;;;27.73;;
25049;SDS011;13046;49.814;9.918;2023-03-16T06:42:27;35.35;;;25.13;;
25049;SDS011;13046;49.814;9.918;2023-03-16T06:44:53;40.15;;;26.17;;
25049;SDS011;13046;49.814;9.918;2023-03-16T06:47:19;43.47;;;26.85;;
25049;SDS011;13046;49.814;9.918;2023-03-16T06:49:46;35.90;;;24.67;;
25049;SDS011;13046;49.814;9.918;2023-03-16T06:52:17;34.58;;;25.02;;
25049;SDS011;13046;49.814;9.918;2023-03-16T06:54:43;35.70;;;23.67;;
25049;SDS011;13046;49.814;9.918;2023-03-16T06:57:11;38.90;;;24.23;;
25049;SDS011;13046;49.814;9.918;2023-03-16T06:59:38;40.90;;;25.73;;
25049;SDS011;13046;49.814;9.918;2023-03-16T07:02:04;34.67;;;25.13;;
25049;SDS011;13046;49.814;9.918;2023-03-16T07:04:31;38.50;;;24.40;;
25049;SDS011;13046;49.814;9.918;2023-03-16T07:06:58;36.05;;;23.73;;
25049;SDS011;13046;49.814;9.918;2023-03-16T07:09:25;37.03;;;23.27;;
25049;SDS011;13046;49.814;9.918;2023-03-16T07:11:51;30.08;;;22.00;;
25049;SDS011;13046;49.814;9.918;2023-03-16T07:14:17;34.72;;;23.55;;
25049;SDS011;13046;49.814;9.918;2023-03-16T07:16:46;34.80;;;24.88;;
25049;SDS011;13046;49.814;9.918;2023-03-16T07:19:12;36.60;;;26.92;;
25049;SDS011;13046;49.814;9.918;2023-03-16T07:21:38;33.05;;;23.70;;
25049;SDS011;13046;49.814;9.918;2023-03-16T07:24:08;29.67;;;21.65;;
25049;SDS011;13046;49.814;9.918;2023-03-16T07:26:36;30.52;;;22.52;;
25049;SDS011;13046;49.814;9.918;2023-03-16T07:29:02;27.27;;;20.52;;
25049;SDS011;13046;49.814;9.918;2023-03-16T07:31:32;30.65;;;21.30;;
25049;SDS011;13046;49.814;9.918;2023-03-16T07:34:00;30.13;;;21.88;;
25049;SDS011;13046;49.814;9.918;2023-03-16T07:36:34;27.25;;;19.95;;
25049;SDS011;13046;49.814;9.918;2023-03-16T07:39:02;30.63;;;19.92;;
25049;SDS011;13046;49.814;9.918;2023-03-16T07:41:31;28.98;;;20.38;;
25049;SDS011;13046;49.814;9.918;2023-03-16T07:44:11;22.48;;;17.35;;
25049;SDS011;13046;49.814;9.918;2023-03-16T07:46:38;28.52;;;20.08;;
25049;SDS011;13046;49.814;9.918;2023-03-16T07:49:04;26.25;;;19.63;;
25049;SDS011;13046;49.814;9.918;2023-03-16T07:51:31;30.48;;;19.40;;
25049;SDS011;13046;49.814;9.918;2023-03-16T07:53:57;28.95;;;21.85;;
25049;SDS011;13046;49.814;9.918;2023-03-16T07:56:27;27.67;;;19.90;;
25049;SDS011;13046;49.814;9.918;2023-03-16T07:58:56;25.95;;;21.63;;
25049;SDS011;13046;49.814;9.918;2023-03-16T08:01:23;27.90;;;19.60;;
25049;SDS011;13046;49.814;9.918;2023-03-16T08:03:49;24.75;;;19.23;;
25049;SDS011;13046;49.814;9.918;2023-03-16T08:06:15;26.13;;;19.52;;
25049;SDS011;13046;49.814;9.918;2023-03-16T08:08:41;24.38;;;18.80;;
25049;SDS011;13046;49.814;9.918;2023-03-16T08:11:13;25.10;;;18.00;;
25049;SDS011;13046;49.814;9.918;2023-03-16T08:13:46;24.17;;;18.30;;
25049;SDS011;13046;49.814;9.918;2023-03-16T08:16:14;21.10;;;16.13;;
25049;SDS011;13046;49.814;9.918;2023-03-16T08:18:43;25.25;;;18.50;;
25049;SDS011;13046;49.814;9.918;2023-03-16T08:21:09;23.48;;;19.38;;
25049;SDS011;13046;49.814;9.918;2023-03-16T08:23:35;20.52;;;16.67;;
25049;SDS011;13046;49.814;9.918;2023-03-16T08:26:02;23.48;;;16.48;;
25049;SDS011;13046;49.814;9.918;2023-03-16T08:28:33;23.02;;;16.88;;
25049;SDS011;13046;49.814;9.918;2023-03-16T08:31:05;22.00;;;16.40;;
25049;SDS011;13046;49.814;9.918;2023-03-16T08:33:49;22.35;;;15.50;;
25049;SDS011;13046;49.814;9.918;2023-03-16T08:36:19;20.08;;;15.40;;
25049;SDS011;13046;49.814;9.918;2023-03-16T08:38:48;20.02;;;15.15;;
25049;SDS011;13046;49.814;9.918;2023-03-16T08:41:16;20.63;;;14.90;;
25049;SDS011;13046;49.814;9.918;2023-03-16T08:43:46;18.60;;;15.10;;
25049;SDS011;13046;49.814;9.918;2023-03-16T08:46:12;20.42;;;15.63;;
25049;SDS011;13046;49.814;9.918;2023-03-16T08:48:47;18.77;;;15.10;;
25049;SDS011;13046;49.814;9.918;2023-03-16T08:51:14;24.58;;;16.77;;
25049;SDS011;13046;49.814;9.918;2023-03-16T08:53:41;19.38;;;15.73;;
25049;SDS011;13046;49.814;9.918;2023-03-16T08:56:11;22.23;;;16.88;;
25049;SDS011;13046;49.814;9.918;2023-03-16T08:58:39;17.88;;;14.13;;
25049;SDS011;13046;49.814;9.918;2023-03-16T09:01:09;21.02;;;15.68;;
25049;SDS011;13046;49.814;9.918;2023-03-16T09:03:36;19.33;;;15.25;;
25049;SDS011;13046;49.814;9.918;2023-03-16T09:06:04;19.58;;;15.07;;
25049;SDS011;13046;49.814;9.918;2023-03-16T09:08:31;20.45;;;15.15;;
25049;SDS011;13046;49.814;9.918;2023-03-16T09:11:01;20.73;;;15.10;;
25049;SDS011;13046;49.814;9.918;2023-03-16T09:13:28;21.30;;;16.52;;
25049;SDS011;13046;49.814;9.918;2023-03-16T09:15:54;22.02;;;16.15;;
25049;SDS011;13046;49.814;9.918;2023-03-16T09:18:21;21.98;;;16.10;;
25049;SDS011;13046;49.814;9.918;2023-03-16T09:20:48;22.73;;;15.85;;
25049;SDS011;13046;49.814;9.918;2023-03-16T09:23:14;21.95;;;16.67;;
25049;SDS011;13046;49.814;9.918;2023-03-16T09:25:40;31.15;;;16.90;;
25049;SDS011;13046;49.814;9.918;2023-03-16T09:28:06;22.40;;;15.65;;
25049;SDS011;13046;49.814;9.918;2023-03-16T09:30:32;22.55;;;15.82;;
25049;SDS011;13046;49.814;9.918;2023-03-16T09:32:58;23.27;;;15.68;;
25049;SDS011;13046;49.814;9.918;2023-03-16T09:35:25;18.35;;;16.08;;
25049;SDS011;13046;49.814;9.918;2023-03-16T09:37:51;16.83;;;13.93;;
25049;SDS011;13046;49.814;9.918;2023-03-16T09:40:19;18.02;;;13.80;;
25049;SDS011;13046;49.814;9.918;2023-03-16T09:42:50;20.23;;;14.93;;
25049;SDS011;13046;49.814;9.918;2023-03-16T09:47:46;19.25;;;14.10;;
25049;SDS011;13046;49.814;9.918;2023-03-16T09:50:24;18.95;;;14.27;;
25049;SDS011;13046;49.814;9.918;2023-03-16T09:55:22;19.73;;;15.43;;
25049;SDS011;13046;49.814;9.918;2023-03-16T09:57:49;20.13;;;14.88;;
25049;SDS011;13046;49.814;9.918;2023-03-16T10:00:16;17.17;;;13.18;;
25049;SDS011;13046;49.814;9.918;2023-03-16T10:05:14;18.13;;;14.75;;
25049;SDS011;13046;49.814;9.918;2023-03-16T10:07:42;17.30;;;14.88;;
25049;SDS011;13046;49.814;9.918;2023-03-16T10:10:23;18.13;;;13.93;;
25049;SDS011;13046;49.814;9.918;2023-03-16T10:12:52;17.30;;;12.65;;
25049;SDS011;13046;49.814;9.918;2023-03-16T10:15:22;16.40;;;13.55;;
25049;SDS011;13046;49.814;9.918;2023-03-16T10:17:54;15.77;;;11.95;;
25049;SDS011;13046;49.814;9.918;2023-03-16T10:20:22;17.17;;;12.02;;
25049;SDS011;13046;49.814;9.918;2023-03-16T10:22:51;18.65;;;13.50;;
25049;SDS011;13046;49.814;9.918;2023-03-16T10:25:21;14.90;;;11.13;;
25049;SDS011;13046;49.814;9.918;2023-03-16T10:27:48;11.00;;;9.85;;
25049;SDS011;13046;49.814;9.918;2023-03-16T10:32:54;12.43;;;10.70;;
25049;SDS011;13046;49.814;9.918;2023-03-16T10:38:00;13.32;;;10.75;;
25049;SDS011;13046;49.814;9.918;2023-03-16T10:40:26;14.30;;;10.80;;
25049;SDS011;13046;49.814;9.918;2023-03-16T10:42:56;11.13;;;9.85;;
25049;SDS011;13046;49.814;9.918;2023-03-16T10:45:30;12.07;;;10.30;;
25049;SDS011;13046;49.814;9.918;2023-03-16T10:48:05;14.13;;;10.70;;
25049;SDS011;13046;49.814;9.918;2023-03-16T10:50:31;11.75;;;10.07;;
25049;SDS011;13046;49.814;9.918;2023-03-16T10:52:58;13.93;;;10.32;;
25049;SDS011;13046;49.814;9.918;2023-03-16T10:55:26;13.15;;;11.18;;
25049;SDS011;13046;49.814;9.918;2023-03-16T10:57:55;12.93;;;11.48;;
25049;SDS011;13046;49.814;9.918;2023-03-16T11:00:22;14.60;;;12.52;;
25049;SDS011;13046;49.814;9.918;2023-03-16T11:02:51;10.50;;;9.40;;
25049;SDS011;13046;49.814;9.918;2023-03-16T11:05:29;10.50;;;9.18;;
25049;SDS011;13046;49.814;9.918;2023-03-16T11:08:00;9.48;;;8.23;;
25049;SDS011;13046;49.814;9.918;2023-03-16T11:10:34;10.68;;;9.45;;
25049;SDS011;13046;49.814;9.918;2023-03-16T11:13:19;11.38;;;9.13;;
25049;SDS011;13046;49.814;9.918;2023-03-16T11:18:23;14.70;;;13.30;;
25049;SDS011;13046;49.814;9.918;2023-03-16T11:21:14;10.15;;;8.85;;
25049;SDS011;13046;49.814;9.918;2023-03-16T11:23:47;12.65;;;9.65;;
25049;SDS011;13046;49.814;9.918;2023-03-16T11:26:26;13.13;;;9.88;;
25049;SDS011;13046;49.814;9.918;2023-03-16T11:32:02;9.18;;;8.27;;
25049;SDS011;13046;49.814;9.918;2023-03-16T11:34:30;12.32;;;10.52;;
25049;SDS011;13046;49.814;9.918;2023-03-16T11:39:37;11.00;;;8.63;;
25049;SDS011;13046;49.814;9.918;2023-03-16T11:45:07;10.25;;;8.70;;
25049;SDS011;13046;49.814;9.918;2023-03-16T11:56:18;9.02;;;8.13;;
25049;SDS011;13046;49.814;9.918;2023-03-16T12:07:25;7.55;;;6.85;;
25049;SDS011;13046;49.814;9.918;2023-03-16T12:10:27;9.27;;;8.18;;
25049;SDS011;13046;49.814;9.918;2023-03-16T12:16:10;8.65;;;7.75;;
25049;SDS011;13046;49.814;9.918;2023-03-16T12:18:43;7.80;;;6.80;;
25049;SDS011;13046;49.814;9.918;2023-03-16T12:21:18;8.05;;;7.25;;
25049;SDS011;13046;49.814;9.918;2023-03-16T12:23:50;9.40;;;8.00;;
25049;SDS011;13046;49.814;9.918;2023-03-16T12:26:19;8.75;;;7.18;;
25049;SDS011;13046;49.814;9.918;2023-03-16T12:28:47;7.00;;;6.22;;
25049;SDS011;13046;49.814;9.918;2023-03-16T12:31:19;6.55;;;5.90;;
25049;SDS011;13046;49.814;9.918;2023-03-16T12:34:02;8.20;;;5.88;;
25049;SDS011;13046;49.814;9.918;2023-03-16T12:42:09;8.38;;;7.18;;
25049;SDS011;13046;49.814;9.918;2023-03-16T12:45:01;9.20;;;6.03;;
25049;SDS011;13046;49.814;9.918;2023-03-16T12:50:17;6.55;;;5.43;;
25049;SDS011;13046;49.814;9.918;2023-03-16T12:52:48;6.55;;;5.90;;
25049;SDS011;13046;49.814;9.918;2023-03-16T12:55:22;8.13;;;6.22;;
25049;SDS011;13046;49.814;9.918;2023-03-16T12:57:57;8.63;;;7.13;;
25049;SDS011;13046;49.814;9.918;2023-03-16T13:00:33;7.68;;;6.53;;
25049;SDS011;13046;49.814;9.918;2023-03-16T13:03:01;7.45;;;6.70;;
25049;SDS011;13046;49.814;9.918;2023-03-16T13:05:32;8.02;;;7.20;;
25049;SDS011;13046;49.814;9.918;2023-03-16T13:08:03;6.65;;;5.95;;
25049;SDS011;13046;49.814;9.918;2023-03-16T13:13:15;7.75;;;5.63;;
25049;SDS011;13046;49.814;9.918;2023-03-16T13:15:42;5.45;;;4.97;;
25049;SDS011;13046;49.814;9.918;2023-03-16T13:23:27;6.65;;;5.95;;
25049;SDS011;13046;49.814;9.918;2023-03-16T13:26:21;8.73;;;6.75;;
25049;SDS011;13046;49.814;9.918;2023-03-16T13:28:51;8.38;;;5.88;;
25049;SDS011;13046;49.814;9.918;2023-03-16T13:31:33;8.00;;;6.22;;
25049;SDS011;13046;49.814;9.918;2023-03-16T13:34:02;11.10;;;5.10;;
25049;SDS011;13046;49.814;9.918;2023-03-16T13:36:32;7.93;;;6.47;;
25049;SDS011;13046;49.814;9.918;2023-03-16T13:39:20;6.53;;;5.60;;
25049;SDS011;13046;49.814;9.918;2023-03-16T13:42:01;6.68;;;6.07;;
25049;SDS011;13046;49.814;9.918;2023-03-16T13:44:29;5.97;;;5.38;;
25049;SDS011;13046;49.814;9.918;2023-03-16T13:46:56;8.65;;;7.15;;
25049;SDS011;13046;49.814;9.918;2023-03-16T13:49:26;7.20;;;5.60;;
25049;SDS011;13046;49.814;9.918;2023-03-16T13:51:52;6.95;;;6.25;;
25049;SDS011;13046;49.814;9.918;2023-03-16T13:54:28;6.47;;;5.88;;
25049;SDS011;13046;49.814;9.918;2023-03-16T13:56:56;9.50;;;7.03;;
25049;SDS011;13046;49.814;9.918;2023-03-16T13:59:23;7.63;;;5.55;;
25049;SDS011;13046;49.814;9.918;2023-03-16T14:01:54;9.93;;;6.45;;
25049;SDS011;13046;49.814;9.918;2023-03-16T14:04:22;9.35;;;6.18;;
25049;SDS011;13046;49.814;9.918;2023-03-16T14:06:55;6.97;;;4.88;;
25049;SDS011;13046;49.814;9.918;2023-03-16T14:09:30;6.18;;;5.53;;
25049;SDS011;13046;49.814;9.918;2023-03-16T14:11:58;7.90;;;7.03;;
25049;SDS011;13046;49.814;9.918;2023-03-16T14:14:27;7.15;;;5.55;;
25049;SDS011;13046;49.814;9.918;2023-03-16T14:16:58;8.00;;;6.38;;
25049;SDS011;13046;49.814;9.918;2023-03-16T14:19:35;5.70;;;4.82;;
25049;SDS011;13046;49.814;9.918;2023-03-16T14:22:17;6.53;;;5.78;;
25049;SDS011;13046;49.814;9.918;2023-03-16T14:24:50;5.60;;;4.95;;
25049;SDS011;13046;49.814;9.918;2023-03-16T14:27:20;6.22;;;5.63;;
25049;SDS011;13046;49.814;9.918;2023-03-16T14:29:53;6.20;;;5.30;;
25049;SDS011;13046;49.814;9.918;2023-03-16T14:32:28;6.15;;;5.10;;
25049;SDS011;13046;49.814;9.918;2023-03-16T14:35:01;7.53;;;5.75;;
25049;SDS011;13046;49.814;9.918;2023-03-16T14:37:38;5.78;;;5.18;;
25049;SDS011;13046;49.814;9.918;2023-03-16T14:40:06;6.90;;;6.03;;
25049;SDS011;13046;49.814;9.918;2023-03-16T14:42:44;7.63;;;5.60;;
25049;SDS011;13046;49.814;9.918;2023-03-16T14:45:11;7.13;;;6.15;;
25049;SDS011;13046;49.814;9.918;2023-03-16T14:47:40;7.10;;;6.20;;
25049;SDS011;13046;49.814;9.918;2023-03-16T14:50:11;6.60;;;5.90;;
25049;SDS011;13046;49.814;9.918;2023-03-16T14:52:52;12.00;;;7.47;;
25049;SDS011;13046;49.814;9.918;2023-03-16T14:55:20;5.93;;;5.32;;
25049;SDS011;13046;49.814;9.918;2023-03-16T14:57:47;7.40;;;6.50;;
25049;SDS011;13046;49.814;9.918;2023-03-16T15:00:16;7.10;;;6.18;;
25049;SDS011;13046;49.814;9.918;2023-03-16T15:02:44;8.95;;;6.53;;
25049;SDS011;13046;49.814;9.918;2023-03-16T15:05:29;10.05;;;6.07;;
25049;SDS011;13046;49.814;9.918;2023-03-16T15:08:10;13.77;;;9.70;;
25049;SDS011;13046;49.814;9.918;2023-03-16T15:10:41;12.60;;;8.98;;
25049;SDS011;13046;49.814;9.918;2023-03-16T15:13:15;6.50;;;5.47;;
25049;SDS011;13046;49.814;9.918;2023-03-16T15:16:02;6.13;;;5.53;;
25049;SDS011;13046;49.814;9.918;2023-03-16T15:18:30;6.20;;;5.60;;
25049;SDS011;13046;49.814;9.918;2023-03-16T15:20:57;7.07;;;6.13;;
25049;SDS011;13046;49.814;9.918;2023-03-16T15:23:24;6.38;;;5.50;;
25049;SDS011;13046;49.814;9.918;2023-03-16T15:25:51;9.82;;;5.70;;
25049;SDS011;13046;49.814;9.918;2023-03-16T15:28:23;6.43;;;5.45;;
25049;SDS011;13046;49.814;9.918;2023-03-16T15:30:51;7.57;;;5.47;;
25049;SDS011;13046;49.814;9.918;2023-03-16T15:33:18;7.28;;;6.00;;
25049;SDS011;13046;49.814;9.918;2023-03-16T15:35:45;5.50;;;5.00;;
25049;SDS011;13046;49.814;9.918;2023-03-16T15:38:14;9.25;;;6.25;;
25049;SDS011;13046;49.814;9.918;2023-03-16T15:40:47;8.55;;;6.35;;
25049;SDS011;13046;49.814;9.918;2023-03-16T15:43:16;7.57;;;6.88;;
25049;SDS011;13046;49.814;9.918;2023-03-16T15:45:44;8.43;;;6.10;;
25049;SDS011;13046;49.814;9.918;2023-03-16T15:48:11;6.38;;;5.65;;
25049;SDS011;13046;49.814;9.918;2023-03-16T15:50:38;6.13;;;5.25;;
25049;SDS011;13046;49.814;9.918;2023-03-16T15:53:11;8.00;;;5.38;;
25049;SDS011;13046;49.814;9.918;2023-03-16T15:55:51;5.70;;;5.20;;